createdAt,value
2022-08-05T00:04:08.305Z,3.50
2022-08-05T00:08:34.054Z,3.70
2022-08-05T00:12:27.285Z,3.43
2022-08-05T00:16:52.087Z,4.40
2022-08-05T00:20:46.127Z,4.07
2022-08-05T00:24:57.419Z,4.63
2022-08-05T00:29:06.802Z,4.10
2022-08-05T00:34:54.739Z,4.70
2022-08-05T00:37:35.519Z,4.97
2022-08-05T00:41:51.790Z,4.93
2022-08-05T00:45:49.148Z,4.37
2022-08-05T00:49:58.044Z,4.97
2022-08-05T00:54:07.803Z,5.00
2022-08-05T00:58:20.847Z,5.87
2022-08-05T01:02:31.191Z,5.40
2022-08-05T01:06:39.739Z,5.43
2022-08-05T01:11:01.721Z,4.93
2022-08-05T01:15:36.027Z,5.70
2022-08-05T01:19:36.795Z,5.07
2022-08-05T01:23:59.073Z,6.03
2022-08-05T01:28:12.351Z,5.50
2022-08-05T01:32:24.020Z,5.73
2022-08-05T01:36:37.193Z,5.33
2022-08-05T01:40:48.083Z,5.57
2022-08-05T01:45:00.129Z,5.90
2022-08-05T01:49:23.949Z,4.90
2022-08-05T01:53:57.534Z,6.00
2022-08-05T01:58:09.367Z,6.00
2022-08-05T02:02:04.813Z,6.43
2022-08-05T02:06:37.284Z,5.30
2022-08-05T02:10:42.149Z,5.80
2022-08-05T02:14:53.852Z,6.43
2022-08-05T02:19:27.365Z,5.77
2022-08-05T02:23:39.266Z,6.30
2022-08-05T02:27:59.289Z,6.17
2022-08-05T02:32:04.725Z,6.90
2022-08-05T02:36:15.670Z,6.70
2022-08-05T02:40:27.909Z,5.90
2022-08-05T02:44:39.185Z,7.33
2022-08-05T02:48:48.626Z,6.10
2022-08-05T02:52:59.919Z,6.93
2022-08-05T02:58:10.568Z,6.93
2022-08-05T03:01:24.903Z,6.43
2022-08-05T03:06:54.853Z,6.07
2022-08-05T03:09:51.744Z,6.53
2022-08-05T03:14:03.245Z,5.97
2022-08-05T03:18:06.023Z,6.10
2022-08-05T03:22:18.920Z,6.23
2022-08-05T03:26:31.957Z,7.40
2022-08-05T03:30:38.493Z,6.33
2022-08-05T03:34:51.067Z,6.93
2022-08-05T03:39:01.763Z,7.10
2022-08-05T03:43:58.776Z,6.63
2022-08-05T03:47:21.333Z,6.27
2022-08-05T03:51:33.505Z,7.13
2022-08-05T03:56:11.460Z,8.57
2022-08-05T04:00:06.375Z,8.63
2022-08-05T04:04:16.913Z,8.40
2022-08-05T04:08:36.353Z,8.10
2022-08-05T04:16:49.417Z,10.40
2022-08-05T04:20:59.191Z,9.20
2022-08-05T04:25:08.455Z,9.77
2022-08-05T04:29:19.769Z,9.10
2022-08-05T04:34:18.783Z,9.27
2022-08-05T04:37:41.954Z,8.30
2022-08-05T04:41:51.059Z,7.30
2022-08-05T04:46:00.700Z,8.27
2022-08-05T04:50:11.278Z,7.17
2022-08-05T04:54:21.837Z,8.00
2022-08-05T04:58:30.799Z,7.47
2022-08-05T05:02:41.757Z,7.40
2022-08-05T05:06:57.473Z,7.03
2022-08-05T05:11:00.254Z,6.80
2022-08-05T05:15:10.847Z,7.67
2022-08-05T05:19:23.640Z,6.93
2022-08-05T05:24:01.715Z,6.50
2022-08-05T05:27:44.309Z,8.83
2022-08-05T05:31:51.066Z,8.00
2022-08-05T05:35:59.924Z,6.63
2022-08-05T05:40:10.042Z,6.47
2022-08-05T05:44:35.638Z,7.07
2022-08-05T05:48:30.562Z,6.63
2022-08-05T05:52:40.672Z,6.40
2022-08-05T05:56:50.972Z,5.50
2022-08-05T06:01:04.949Z,5.80
2022-08-05T06:05:16.450Z,5.70
2022-08-05T06:09:36.342Z,5.43
2022-08-05T06:13:40.675Z,5.50
2022-08-05T06:17:53.311Z,6.00
2022-08-05T06:21:56.888Z,5.53
2022-08-05T06:26:13.909Z,6.17
2022-08-05T06:30:18.146Z,6.30
2022-08-05T06:34:27.809Z,6.60
2022-08-05T06:38:37.137Z,5.63
2022-08-05T06:42:46.568Z,4.53
2022-08-05T06:46:55.914Z,5.30
2022-08-05T06:51:09.657Z,4.20
2022-08-05T06:55:17.436Z,3.93
2022-08-05T06:59:27.175Z,5.13
2022-08-05T07:03:36.780Z,4.20
2022-08-05T07:07:47.441Z,4.40
2022-08-05T07:11:56.435Z,4.97
2022-08-05T07:17:56.523Z,3.87
2022-08-05T07:20:38.890Z,4.90
2022-08-05T07:24:53.578Z,4.37
2022-08-05T07:28:57.720Z,4.40
2022-08-05T07:33:16.698Z,4.10
2022-08-05T07:37:20.965Z,4.03
2022-08-05T07:42:14.570Z,4.43
2022-08-05T07:45:57.804Z,5.07
2022-08-05T07:49:54.333Z,4.13
2022-08-05T07:54:03.477Z,4.60
2022-08-05T07:58:17.777Z,3.60
2022-08-05T08:02:31.396Z,3.97
2022-08-05T08:06:40.161Z,3.73
2022-08-05T08:10:49.946Z,3.70
2022-08-05T08:15:02.531Z,4.40
2022-08-05T08:19:09.910Z,4.60
2022-08-05T08:24:01.740Z,4.47
2022-08-05T08:27:39.953Z,3.70
2022-08-05T08:31:41.702Z,4.40
2022-08-05T08:35:53.042Z,4.13
2022-08-05T08:40:03.567Z,4.50
2022-08-05T08:45:19.601Z,3.40
2022-08-05T08:48:43.675Z,4.27
2022-08-05T08:52:39.273Z,4.03
2022-08-05T08:56:49.592Z,3.80
2022-08-05T09:00:59.307Z,3.20
2022-08-05T09:05:17.477Z,4.60
2022-08-05T09:09:19.073Z,4.10
2022-08-05T09:13:31.834Z,3.77
2022-08-05T09:17:40.579Z,3.10
2022-08-05T09:22:22.056Z,3.53
2022-08-05T09:26:15.872Z,3.30
2022-08-05T09:30:23.577Z,3.90
2022-08-05T09:34:53.285Z,3.80
2022-08-05T09:39:18.207Z,4.27
2022-08-05T09:43:41.239Z,3.57
2022-08-05T09:47:55.351Z,3.53
2022-08-05T09:51:52.792Z,3.60
2022-08-05T09:56:04.732Z,3.37
2022-08-05T10:00:18.448Z,4.10
2022-08-05T10:04:38.225Z,4.40
2022-08-05T10:08:53.816Z,3.60
2022-08-05T10:13:00.110Z,3.73
2022-08-05T10:17:37.875Z,3.70
2022-08-05T10:21:27.458Z,4.23
2022-08-05T10:25:38.041Z,4.40
2022-08-05T10:30:41.842Z,4.27
2022-08-05T10:33:57.487Z,3.50
2022-08-05T10:38:08.427Z,4.10
2022-08-05T10:42:32.405Z,4.30
2022-08-05T10:46:55.238Z,4.27
2022-08-05T10:51:21.900Z,4.10
2022-08-05T10:55:20.138Z,3.83
2022-08-05T11:00:02.414Z,5.27
2022-08-05T11:04:11.689Z,6.23
2022-08-05T11:08:36.671Z,5.40
2022-08-05T11:12:42.225Z,5.03
2022-08-05T11:17:58.917Z,5.47
2022-08-05T11:21:48.728Z,6.07
2022-08-05T11:26:16.170Z,5.13
2022-08-05T11:30:26.392Z,5.53
2022-08-05T11:34:50.806Z,7.13
2022-08-05T11:38:54.657Z,6.23
2022-08-05T11:43:04.699Z,5.10
2022-08-05T11:47:21.532Z,4.47
2022-08-05T11:51:44.756Z,6.83
2022-08-05T11:55:38.809Z,5.70
2022-08-05T11:59:50.238Z,6.03
2022-08-05T12:03:58.620Z,5.23
2022-08-05T12:08:11.443Z,6.30
2022-08-05T12:12:26.353Z,5.43
2022-08-05T12:16:39.556Z,5.63
2022-08-05T12:20:48.463Z,4.03
2022-08-05T12:24:58.059Z,3.37
2022-08-05T12:29:09.383Z,2.90
2022-08-05T12:33:27.313Z,2.67
2022-08-05T12:37:31.794Z,2.90
2022-08-05T12:41:43.936Z,2.67
2022-08-05T12:45:53.449Z,2.33
2022-08-05T12:50:06.374Z,2.80
2022-08-05T12:54:26.795Z,2.90
2022-08-05T12:58:50.750Z,2.73
2022-08-05T13:02:50.850Z,2.63
2022-08-05T13:07:04.510Z,3.20
2022-08-05T13:11:18.273Z,3.17
2022-08-05T13:15:41.325Z,3.47
2022-08-05T13:19:52.307Z,2.67
2022-08-05T13:23:55.403Z,2.63
2022-08-05T13:28:05.136Z,2.60
2022-08-05T13:32:13.806Z,2.40
2022-08-05T13:36:24.292Z,2.40
2022-08-05T13:40:47.939Z,2.10
2022-08-05T13:44:45.741Z,2.70
2022-08-05T13:48:58.613Z,2.40
2022-08-05T13:53:09.047Z,2.77
2022-08-05T13:57:17.728Z,3.00
2022-08-05T14:01:44.202Z,2.53
2022-08-05T14:06:25.222Z,2.47
2022-08-05T14:09:48.134Z,2.20
2022-08-05T14:13:57.798Z,2.60
2022-08-05T14:18:14.979Z,2.20
2022-08-05T14:22:17.379Z,2.20
2022-08-05T14:26:36.920Z,2.27
2022-08-05T14:30:39.284Z,2.20
2022-08-05T14:34:48.378Z,1.43
2022-08-05T14:38:58.684Z,2.87
2022-08-05T14:43:11.029Z,1.93
2022-08-05T14:48:04.033Z,2.10
2022-08-05T14:51:30.766Z,2.00
2022-08-05T14:55:40.299Z,2.13
2022-08-05T14:59:48.886Z,1.90
2022-08-05T15:03:57.913Z,2.20
2022-08-05T15:08:15.913Z,2.30
2022-08-05T15:12:17.308Z,2.50
2022-08-05T15:16:25.972Z,2.03
2022-08-05T15:20:34.799Z,2.60
2022-08-05T15:24:44.730Z,2.10
2022-08-05T15:28:53.330Z,1.90
2022-08-05T15:33:02.206Z,1.90
2022-08-05T15:37:14.158Z,4.50
2022-08-05T15:41:56.091Z,2.20
2022-08-05T15:45:38.516Z,2.00
2022-08-05T15:49:56.567Z,2.00
2022-08-05T15:53:58.921Z,2.10
2022-08-05T15:58:06.905Z,2.00
2022-08-05T16:02:19.858Z,2.37
2022-08-05T16:06:26.238Z,1.80
2022-08-05T16:10:36.678Z,2.00
2022-08-05T16:14:45.938Z,2.30
2022-08-05T16:18:55.235Z,2.30
2022-08-05T16:23:03.940Z,2.20
2022-08-05T16:27:16.170Z,2.30
2022-08-05T16:31:23.878Z,2.30
2022-08-05T16:35:33.598Z,2.17
2022-08-05T16:40:04.665Z,2.00
2022-08-05T16:43:56.307Z,1.97
2022-08-05T16:48:10.400Z,2.07
2022-08-05T16:52:19.671Z,1.90
2022-08-05T16:56:30.873Z,2.90
2022-08-05T17:00:40.092Z,2.50
2022-08-05T17:04:48.980Z,4.27
2022-08-05T17:08:57.611Z,2.53
2022-08-05T17:13:06.251Z,2.23
2022-08-05T17:17:16.773Z,2.40
2022-08-05T17:21:35.595Z,2.20
2022-08-05T17:25:40.017Z,2.50
2022-08-05T17:29:52.739Z,2.40
2022-08-05T17:33:58.392Z,2.03
2022-08-05T17:38:10.270Z,1.90
2022-08-05T17:42:22.870Z,2.07
2022-08-05T17:46:31.558Z,2.20
2022-08-05T17:50:40.159Z,2.53
2022-08-05T17:54:50.083Z,2.40
2022-08-05T17:58:59.726Z,1.80
2022-08-05T18:03:08.389Z,2.60
2022-08-05T18:07:17.087Z,3.00
2022-08-05T18:11:32.768Z,3.13
2022-08-05T18:15:38.543Z,2.10
2022-08-05T18:19:51.270Z,2.33
2022-08-05T18:23:58.066Z,2.20
2022-08-05T18:28:09.401Z,2.00
2022-08-05T18:32:18.289Z,2.43
2022-08-05T18:36:29.369Z,2.70
2022-08-05T18:41:53.539Z,2.40
2022-08-05T18:44:51.509Z,2.20
2022-08-05T18:49:00.511Z,2.20
2022-08-05T18:53:16.701Z,2.03
2022-08-05T18:57:19.700Z,2.57
2022-08-05T19:01:47.180Z,2.20
2022-08-05T19:06:13.496Z,2.40
2022-08-05T19:09:51.082Z,2.27
2022-08-05T19:14:11.101Z,2.20
2022-08-05T19:18:20.949Z,2.20
2022-08-05T19:22:22.855Z,2.20
2022-08-05T19:26:33.003Z,2.40
2022-08-05T19:30:44.753Z,2.20
2022-08-05T19:34:55.076Z,2.50
2022-08-05T19:39:02.800Z,2.50
2022-08-05T19:43:31.255Z,2.30
2022-08-05T19:47:22.941Z,2.20
2022-08-05T19:52:05.178Z,2.33
2022-08-05T19:56:14.879Z,2.23
2022-08-05T20:00:01.884Z,2.37
2022-08-05T20:04:05.219Z,2.10
2022-08-05T20:08:15.497Z,2.10
2022-08-05T20:12:25.935Z,2.53
2022-08-05T20:16:35.077Z,2.17
2022-08-05T20:20:45.730Z,2.70
2022-08-05T20:24:55.549Z,2.70
2022-08-05T20:29:04.445Z,2.50
2022-08-05T20:33:13.437Z,2.50
2022-08-05T20:38:04.893Z,2.30
2022-08-05T20:41:44.290Z,2.50
2022-08-05T20:45:56.414Z,2.73
2022-08-05T20:49:54.750Z,2.23
2022-08-05T20:54:04.021Z,2.50
2022-08-05T20:58:15.274Z,2.17
2022-08-05T21:02:26.782Z,2.90
2022-08-05T21:06:37.294Z,2.43
2022-08-05T21:10:48.995Z,2.40
2022-08-05T21:14:57.793Z,2.53
2022-08-05T21:19:07.276Z,2.60
2022-08-05T21:23:16.535Z,2.50
2022-08-05T21:27:27.437Z,2.30
2022-08-05T21:31:41.606Z,2.20
2022-08-05T21:35:58.196Z,2.80
2022-08-05T21:39:57.151Z,2.70
2022-08-05T21:44:06.391Z,2.37
2022-08-05T21:48:16.512Z,2.30
2022-08-05T21:52:28.473Z,2.77
2022-08-05T21:56:37.083Z,2.37
2022-08-05T22:00:51.246Z,2.93
2022-08-05T22:04:58.637Z,3.00
2022-08-05T22:09:13.775Z,2.60
2022-08-05T22:14:19.920Z,2.77
2022-08-05T22:17:28.951Z,2.70
2022-08-05T22:21:38.270Z,2.57
2022-08-05T22:26:09.537Z,3.20
2022-08-05T22:30:17.151Z,2.47
2022-08-05T22:34:28.790Z,2.53
2022-08-05T22:38:36.145Z,2.60
2022-08-05T22:42:53.238Z,3.00
2022-08-05T22:46:56.638Z,2.77
2022-08-05T22:51:06.979Z,2.63
2022-08-05T22:55:19.070Z,2.50
2022-08-05T22:59:47.375Z,2.53
2022-08-05T23:03:59.320Z,2.77
2022-08-05T23:07:48.518Z,2.40
2022-08-05T23:11:57.321Z,2.40
2022-08-05T23:16:07.583Z,2.50
2022-08-05T23:20:18.308Z,2.20
2022-08-05T23:24:26.981Z,2.80
2022-08-05T23:28:35.657Z,2.70
2022-08-05T23:32:45.314Z,2.40
2022-08-05T23:36:54.860Z,2.67
2022-08-05T23:41:03.599Z,2.83
2022-08-05T23:45:14.325Z,2.60
2022-08-05T23:49:25.501Z,3.33
2022-08-05T23:53:46.552Z,2.63
2022-08-05T23:57:44.160Z,2.43
